Time;durP1;ratioP1;P1;durP2;ratioP2;P2;SDS_P1;SDS_P2;PMS_P1;PMS_P2;Temp;Humidity;BMP_temperature;BMP_pressure;BME280_temperature;BME280_humidity;BME280_pressure;Samples;Min_cycle;Max_cycle;Signal;HPM_P1;HPM_P2
2021/01/17 00:00:12;;;;;;;11.05;4.57;;;;;;;-8.67;57.45;93601.78;5055258;28;20025;-69
2021/01/17 00:02:38;;;;;;;10.55;4.03;;;;;;;-8.59;57.44;93598.22;5056809;28;20529;-70
2021/01/17 00:05:11;;;;;;;13.88;4.70;;;;;;;-8.60;57.28;93601.81;5070372;28;20025;-70
2021/01/17 00:07:36;;;;;;;15.38;5.38;;;;;;;-8.73;58.21;93597.44;5057728;28;20547;-70
2021/01/17 00:10:08;;;;;;;15.93;5.95;;;;;;;-8.84;58.77;93600.63;5066256;28;20105;-70
2021/01/17 00:12:33;;;;;;;;;;;;;;;-8.83;58.87;93604.78;5062672;28;20024;-70
2021/01/17 00:14:59;;;;;;;12.82;5.38;;;;;;;-8.94;60.08;93595.88;5054727;28;20019;-71
2021/01/17 00:17:24;;;;;;;14.07;5.78;;;;;;;-8.92;60.44;93596.47;5064910;28;20086;-70
2021/01/17 00:19:50;;;;;;;13.05;5.22;;;;;;;-9.07;60.47;93582.97;5065983;28;20033;-70
2021/01/17 00:22:19;;;;;;;11.95;4.40;;;;;;;-9.09;61.39;93586.53;5065881;28;20039;-70
2021/01/17 00:24:45;;;;;;;11.85;5.07;;;;;;;-9.02;61.58;93593.50;5064241;28;20040;-70
2021/01/17 00:27:12;;;;;;;17.92;5.55;;;;;;;-8.98;61.00;93592.88;5060351;28;20032;-70
2021/01/17 00:29:37;;;;;;;18.42;5.15;;;;;;;-9.02;60.35;93590.91;5065246;28;20522;-70
2021/01/17 00:32:03;;;;;;;10.38;5.10;;;;;;;-9.00;60.80;93583.75;5070049;28;20136;-71
2021/01/17 00:34:28;;;;;;;12.88;5.53;;;;;;;-9.02;60.80;93590.91;5055496;28;20435;-71
2021/01/17 00:36:54;;;;;;;14.38;5.13;;;;;;;-8.99;60.51;93590.53;5061682;28;20032;-70
2021/01/17 00:39:19;;;;;;;16.35;5.38;;;;;;;-8.96;60.48;93592.69;5063215;28;20480;-71
2021/01/17 00:41:44;;;;;;;15.68;5.97;;;;;;;-9.05;60.07;93586.16;5062025;28;20060;-69
2021/01/17 00:44:10;;;;;;;14.10;6.05;;;;;;;-9.01;60.54;93589.94;5067897;28;20037;-71
2021/01/17 00:46:39;;;;;;;12.23;5.28;;;;;;;-8.99;60.26;93586.16;5060161;28;20033;-70
2021/01/17 00:49:05;;;;;;;11.32;4.20;;;;;;;-8.96;60.10;93588.31;5069313;28;20055;-71
2021/01/17 00:51:42;;;;;;;14.43;5.70;;;;;;;-8.98;60.65;93589.50;5068545;28;20032;-70
2021/01/17 00:54:08;;;;;;;11.50;4.78;;;;;;;-9.00;60.19;93594.88;5063153;28;20020;-70
2021/01/17 00:56:33;;;;;;;13.73;6.43;;;;;;;-8.93;60.41;93594.88;5055374;28;20021;-70
2021/01/17 00:58:59;;;;;;;13.93;5.28;;;;;;;-8.93;60.11;93582.75;5057075;28;20035;-70
2021/01/17 01:01:24;;;;;;;14.30;5.10;;;;;;;-8.90;60.08;93584.94;5061280;28;20024;-71
2021/01/17 01:03:50;;;;;;;10.70;4.95;;;;;;;-8.92;59.75;93580.97;5068395;28;20051;-70
2021/01/17 01:06:19;;;;;;;12.88;4.60;;;;;;;-8.91;60.11;93587.72;5058689;28;20123;-71
2021/01/17 01:08:47;;;;;;;11.70;5.20;;;;;;;-8.91;59.90;93585.94;5060026;28;20555;-71
2021/01/17 01:11:17;;;;;;;16.67;5.32;;;;;;;-8.89;59.84;93607.19;5068620;28;20052;-70
2021/01/17 01:13:43;;;;;;;13.38;4.53;;;;;;;-8.88;59.96;93592.50;5067457;28;20513;-70
2021/01/17 01:16:15;;;;;;;10.68;4.32;;;;;;;-8.89;59.26;93596.09;5059213;28;20120;-70
2021/01/17 01:18:45;;;;;;;10.50;4.35;;;;;;;-8.90;59.29;93591.91;5056409;28;20031;-70
2021/01/17 01:21:13;;;;;;;11.20;3.90;;;;;;;-8.83;58.97;93595.28;5061981;28;20136;-70
2021/01/17 01:23:41;;;;;;;14.73;5.22;;;;;;;-8.85;58.85;93592.09;5051877;28;20033;-69
2021/01/17 01:26:06;;;;;;;14.75;4.88;;;;;;;-8.90;57.84;93584.16;5060793;28;20032;-69
2021/01/17 01:28:31;;;;;;;11.75;5.07;;;;;;;-8.86;58.15;93579.38;5062884;28;20391;-69
2021/01/17 01:30:57;;;;;;;13.85;4.93;;;;;;;-8.92;57.86;93575.81;5067527;28;20033;-69
2021/01/17 01:33:23;;;;;;;15.10;4.15;;;;;;;-8.90;57.97;93581.56;5050656;28;20060;-71
2021/01/17 01:35:49;;;;;;;12.48;5.03;;;;;;;-9.00;58.13;93578.59;5061692;28;20020;-69
2021/01/17 01:38:15;;;;;;;16.38;3.88;;;;;;;-8.93;58.11;93580.19;5059746;28;20025;-70
2021/01/17 01:40:51;;;;;;;11.55;5.03;;;;;;;-8.96;58.11;93579.78;5066363;28;20048;-71
2021/01/17 01:43:23;;;;;;;11.90;4.75;;;;;;;-8.96;57.88;93583.16;5062571;28;20039;-69
2021/01/17 01:45:50;;;;;;;10.65;5.05;;;;;;;-9.01;58.16;93569.28;5064183;28;20021;-70
2021/01/17 01:48:17;;;;;;;12.80;4.95;;;;;;;-8.91;58.10;93574.81;5059237;28;20020;-70
2021/01/17 01:50:44;;;;;;;15.18;4.22;;;;;;;-8.99;58.57;93588.72;5058948;28;20024;-70
2021/01/17 01:53:10;;;;;;;10.90;4.38;;;;;;;-8.96;57.95;93579.78;5063935;28;20116;-70
2021/01/17 01:55:35;;;;;;;11.13;4.18;;;;;;;-8.90;58.00;93581.56;5061194;28;20044;-71
2021/01/17 01:58:05;;;;;;;13.02;4.82;;;;;;;-8.91;57.32;93578.19;5060808;28;20146;-70
2021/01/17 02:00:31;;;;;;;10.07;3.63;;;;;;;-8.90;57.65;93578.97;5056418;28;20115;-71
2021/01/17 02:02:56;;;;;;;11.05;4.35;;;;;;;-8.92;57.48;93575.81;5054850;28;20039;-71
2021/01/17 02:05:22;;;;;;;11.90;5.05;;;;;;;-9.05;57.41;93571.44;5056656;28;20096;-70
2021/01/17 02:08:16;;;;;;;7.38;4.05;;;;;;;-9.00;56.86;93569.03;5055401;28;20024;-70
2021/01/17 02:10:43;;;;;;;10.10;4.05;;;;;;;-8.96;56.82;93569.44;5039165;28;20028;-71
2021/01/17 02:13:22;;;;;;;9.13;3.83;;;;;;;-8.94;56.47;93570.81;5066078;28;20037;-70
2021/01/17 02:15:52;;;;;;;9.90;4.28;;;;;;;-8.92;56.67;93574.00;5059598;28;20448;-71
2021/01/17 02:18:21;;;;;;;6.25;3.42;;;;;;;-8.92;57.24;93568.84;5068413;28;20108;-70
2021/01/17 02:20:47;;;;;;;10.55;4.78;;;;;;;-9.00;57.72;93570.84;5060912;28;20024;-70
2021/01/17 02:23:21;;;;;;;10.52;4.50;;;;;;;-9.04;58.11;93567.06;5061685;28;20103;-70
2021/01/17 02:25:47;;;;;;;14.73;4.63;;;;;;;-8.98;58.24;93563.69;5068052;28;20027;-70
2021/01/17 02:28:16;;;;;;;12.27;4.65;;;;;;;-9.00;58.09;93558.72;5066950;28;20040;-71
2021/01/17 02:30:48;;;;;;;11.75;5.13;;;;;;;-9.05;58.48;93571.44;5060861;28;20028;-70
2021/01/17 02:33:18;;;;;;;13.80;5.57;;;;;;;-9.05;58.72;93563.69;5059583;28;20028;-70
2021/01/17 02:35:46;;;;;;;10.20;4.15;;;;;;;-9.01;58.78;93559.72;5067941;28;20492;-70
2021/01/17 02:38:20;;;;;;;10.82;4.13;;;;;;;-8.96;58.70;93574.63;5069353;28;20039;-70
2021/01/17 02:41:01;;;;;;;9.73;4.28;;;;;;;-9.00;59.04;93563.09;5059407;28;20453;-70
2021/01/17 02:43:27;;;;;;;10.35;3.67;;;;;;;-8.93;58.59;93566.47;5066531;28;20082;-70
2021/01/17 02:45:52;;;;;;;13.70;4.97;;;;;;;-8.93;58.62;93563.91;5053135;28;20017;-70
2021/01/17 02:48:18;;;;;;;11.20;5.35;;;;;;;-8.91;58.68;93580.00;5055979;28;20016;-70
2021/01/17 02:50:43;;;;;;;17.05;4.95;;;;;;;-8.95;58.75;93576.22;5061108;28;20024;-70
2021/01/17 02:53:36;;;;;;;10.85;4.53;;;;;;;-8.86;58.35;93577.59;5070173;28;20119;-70
2021/01/17 02:56:04;;;;;;;11.27;4.32;;;;;;;-9.04;59.04;93579.97;5057764;28;20024;-70
2021/01/17 02:58:31;;;;;;;15.82;4.85;;;;;;;-9.04;59.04;93562.69;5065141;28;20495;-71
2021/01/17 03:00:57;;;;;;;11.18;4.47;;;;;;;-9.22;59.50;93560.72;5056467;28;20483;-69
2021/01/17 03:03:35;;;;;;;13.95;4.70;;;;;;;-9.16;59.46;93561.72;5052453;28;20017;-70
2021/01/17 03:06:06;;;;;;;10.63;4.30;;;;;;;-9.10;59.56;93556.56;5065018;28;20089;-70
2021/01/17 03:08:32;;;;;;;12.20;4.75;;;;;;;-9.05;59.37;93555.94;5059219;28;20484;-70
2021/01/17 03:10:57;;;;;;;9.52;4.57;;;;;;;-8.99;58.72;93565.47;5061975;28;20105;-70
2021/01/17 03:13:23;;;;;;;12.10;4.43;;;;;;;-8.99;58.49;93554.38;5056777;28;20131;-70
2021/01/17 03:15:49;;;;;;;8.40;3.95;;;;;;;-9.00;58.35;93550.19;5054405;28;20534;-71
2021/01/17 03:18:14;;;;;;;10.57;3.95;;;;;;;-8.96;58.54;93553.94;5059075;28;20028;-71
2021/01/17 03:20:40;;;;;;;9.75;3.90;;;;;;;-8.90;58.48;93551.34;5065772;28;20731;-71
2021/01/17 03:23:05;;;;;;;10.90;4.60;;;;;;;-8.90;58.04;93558.31;5065383;28;20028;-71
2021/01/17 03:25:30;;;;;;;12.35;4.50;;;;;;;-9.06;58.59;93553.56;5056539;28;20023;-71
2021/01/17 03:27:56;;;;;;;10.93;4.05;;;;;;;-9.14;58.79;93547.63;5069917;28;20588;-71
2021/01/17 03:30:21;;;;;;;10.75;4.80;;;;;;;-9.07;59.03;93552.78;5062956;28;20016;-70
2021/01/17 03:32:47;;;;;;;13.68;4.85;;;;;;;-9.01;58.42;93553.78;5057018;28;20024;-70
2021/01/17 03:35:12;;;;;;;13.57;5.78;;;;;;;-9.00;58.13;93548.38;5060652;28;20138;-69
2021/01/17 03:37:38;;;;;;;9.13;3.90;;;;;;;-8.92;58.29;93549.97;5053074;28;20024;-70
2021/01/17 03:40:05;;;;;;;11.68;4.65;;;;;;;-8.90;58.12;93558.31;5062829;28;20520;-71
2021/01/17 03:42:30;;;;;;;10.35;3.95;;;;;;;-9.04;58.00;93552.38;5052378;28;20032;-71
2021/01/17 03:44:55;;;;;;;9.10;3.55;;;;;;;-8.89;58.00;93560.72;5056715;28;20044;-70
2021/01/17 03:47:21;;;;;;;13.57;4.18;;;;;;;-8.91;57.98;93554.94;5056828;28;20039;-70
2021/01/17 03:49:46;;;;;;;11.80;4.55;;;;;;;-8.99;58.12;93544.03;5068281;28;20027;-70
2021/01/17 03:52:11;;;;;;;8.75;3.97;;;;;;;-8.89;57.68;93552.97;5052085;28;20100;-70
2021/01/17 03:54:37;;;;;;;11.70;4.03;;;;;;;-8.85;57.68;93550.78;5051446;28;20032;-71
2021/01/17 03:57:02;;;;;;;11.50;4.55;;;;;;;-8.79;57.45;93554.31;5049429;28;20108;-70
2021/01/17 03:59:28;;;;;;;9.20;3.97;;;;;;;-8.77;56.83;93554.91;5065415;28;20059;-70
2021/01/17 04:01:53;;;;;;;9.00;4.20;;;;;;;-8.69;56.92;93552.94;5062409;28;20051;-71
2021/01/17 04:04:19;;;;;;;16.55;4.65;;;;;;;-8.63;56.44;93553.09;5055819;28;20104;-71
2021/01/17 04:06:44;;;;;;;9.80;3.78;;;;;;;-8.59;56.10;93546.53;5060664;28;20448;-71
2021/01/17 04:09:10;;;;;;;8.07;2.72;;;;;;;-8.59;55.47;93556.88;5066078;28;20496;-71
2021/01/17 04:11:35;;;;;;;9.15;4.28;;;;;;;-8.66;54.81;93561.28;5069685;28;20028;-71
2021/01/17 04:14:01;;;;;;;11.15;3.78;;;;;;;-8.61;55.36;93553.69;5062454;28;20098;-70
2021/01/17 04:16:26;;;;;;;9.55;3.40;;;;;;;-8.63;55.12;93550.50;5048110;28;20024;-71
2021/01/17 04:18:51;;;;;;;11.30;3.67;;;;;;;-8.62;55.03;93558.06;5050365;28;20083;-72
2021/01/17 04:21:17;;;;;;;8.32;3.58;;;;;;;-8.63;55.44;93547.94;5059596;28;20150;-71
2021/01/17 04:23:43;;;;;;;10.20;4.32;;;;;;;-8.66;55.75;93550.94;5057810;28;20472;-71
2021/01/17 04:26:09;;;;;;;7.90;3.17;;;;;;;-8.71;55.70;93544.59;5057655;28;20085;-71
2021/01/17 04:28:35;;;;;;;11.02;3.65;;;;;;;-8.75;54.70;93561.47;5061812;28;20024;-72
2021/01/17 04:31:00;;;;;;;14.23;4.82;;;;;;;-8.80;55.08;93556.13;5047743;28;20036;-71
2021/01/17 04:33:25;;;;;;;8.30;3.72;;;;;;;-8.74;55.58;93557.88;5052934;28;20492;-70
2021/01/17 04:35:51;;;;;;;11.07;4.25;;;;;;;-8.74;55.00;93568.22;5069485;28;20027;-72
2021/01/17 04:38:17;;;;;;;8.82;3.65;;;;;;;-8.73;54.85;93572.41;5060444;28;20029;-72
2021/01/17 04:40:42;;;;;;;8.85;3.75;;;;;;;-8.69;53.16;93573.59;5055080;28;20571;-72
2021/01/17 04:43:23;;;;;;;6.07;3.17;;;;;;;-8.62;53.93;93560.66;5057851;28;20044;-72
2021/01/17 04:45:52;;;;;;;8.40;3.05;;;;;;;-8.61;53.68;93558.84;5062350;28;20032;-71
2021/01/17 04:48:18;;;;;;;6.60;3.15;;;;;;;-8.57;53.21;93566.00;5054189;28;20036;-71
2021/01/17 04:50:46;;;;;;;6.63;2.72;;;;;;;-8.59;53.38;93560.22;5063136;28;20031;-69
2021/01/17 04:53:13;;;;;;;6.20;2.88;;;;;;;-8.52;53.05;93560.25;5061520;28;20034;-69
2021/01/17 04:55:39;;;;;;;9.40;3.75;;;;;;;-8.54;52.86;93567.41;5071222;28;20054;-71
2021/01/17 04:58:25;;;;;;;8.85;3.75;;;;;;;-8.62;53.10;93565.03;5071198;28;20064;-69
2021/01/17 05:00:57;;;;;;;8.15;2.75;;;;;;;-8.62;53.78;93565.03;5070093;28;20067;-71
2021/01/17 05:04:00;;;;;;;12.55;4.40;;;;;;;-8.59;52.43;93570.56;5055813;28;20039;-72
2021/01/17 05:06:28;;;;;;;;;;;;;;;-8.58;52.18;93569.59;5072507;28;20487;-71
2021/01/17 05:08:59;;;;;;;11.90;4.13;;;;;;;-8.60;52.38;93563.03;5072635;28;20378;-72
2021/01/17 05:11:39;;;;;;;9.00;3.50;;;;;;;-8.59;53.00;93568.00;5071157;28;20020;-72
2021/01/17 05:14:12;;;;;;;6.95;2.72;;;;;;;-8.65;53.65;93565.44;5067144;28;20040;-72
2021/01/17 05:16:40;;;;;;;8.93;3.33;;;;;;;-8.72;53.36;93573.19;5072063;28;20403;-71
2021/01/17 05:19:10;;;;;;;9.95;4.32;;;;;;;-8.65;53.40;93570.59;5070972;28;20093;-72
2021/01/17 05:21:39;;;;;;;7.75;3.08;;;;;;;-8.60;53.79;93570.78;5063457;28;20025;-72
2021/01/17 05:24:09;;;;;;;8.73;3.28;;;;;;;-8.58;53.25;93561.06;5062464;28;20159;-72
2021/01/17 05:26:39;;;;;;;8.63;3.97;;;;;;;-8.55;53.77;93565.81;5058182;28;20187;-74
2021/01/17 05:29:05;;;;;;;7.97;3.65;;;;;;;-8.57;54.14;93563.41;5061358;28;20134;-73
2021/01/17 05:31:30;;;;;;;8.07;3.05;;;;;;;-8.62;53.86;93557.28;5064085;28;20025;-73
2021/01/17 05:33:57;;;;;;;8.20;3.60;;;;;;;-8.59;54.29;93556.88;5058146;28;20453;-74
2021/01/17 05:36:23;;;;;;;6.57;3.38;;;;;;;-8.63;52.66;93571.19;5055364;28;20025;-73
2021/01/17 05:38:59;;;;;;;11.57;3.50;;;;;;;-8.62;53.14;93565.03;5067457;28;20025;-73
2021/01/17 05:41:25;;;;;;;6.03;2.58;;;;;;;-8.64;52.81;93572.19;5061836;28;20031;-73
2021/01/17 05:43:50;;;;;;;8.27;2.95;;;;;;;-8.63;52.84;93578.94;5057567;28;20025;-73
2021/01/17 05:46:16;;;;;;;10.60;3.88;;;;;;;-8.63;53.01;93574.56;5061064;28;20024;-75
2021/01/17 05:48:41;;;;;;;8.05;3.10;;;;;;;-8.63;53.20;93571.19;5067659;28;20028;-74
2021/01/17 05:51:07;;;;;;;10.13;3.22;;;;;;;-8.62;52.97;93570.22;5071639;28;20034;-74
2021/01/17 05:53:33;;;;;;;11.75;4.15;;;;;;;-8.64;53.04;93582.53;5055696;28;20120;-73
2021/01/17 05:56:00;;;;;;;5.47;2.35;;;;;;;-8.69;53.35;93571.00;5066968;28;20077;-73
2021/01/17 05:58:31;;;;;;;5.82;2.42;;;;;;;-8.66;53.22;93569.03;5056246;28;20420;-73
2021/01/17 06:01:14;;;;;;;9.45;3.03;;;;;;;-8.64;53.86;93554.09;5059178;28;20102;-73
2021/01/17 06:03:58;;;;;;;7.95;3.28;;;;;;;-8.61;53.98;93556.28;5054551;28;20028;-73
2021/01/17 06:06:28;;;;;;;7.50;3.30;;;;;;;-8.62;53.88;93565.03;5063751;28;20024;-73
2021/01/17 06:08:55;;;;;;;7.63;3.05;;;;;;;-8.52;53.58;93558.44;5069705;28;20028;-73
2021/01/17 06:11:22;;;;;;;11.80;4.20;;;;;;;-8.50;53.47;93558.25;5057600;28;20086;-71
2021/01/17 06:13:56;;;;;;;9.15;4.28;;;;;;;-8.46;53.61;93559.44;5062373;28;20131;-71
2021/01/17 06:16:25;;;;;;;7.32;3.70;;;;;;;-8.47;53.53;93557.81;5055346;28;20042;-71
2021/01/17 06:19:01;;;;;;;9.05;3.00;;;;;;;-8.52;53.80;93568.00;5060128;28;20090;-70
2021/01/17 06:21:29;;;;;;;10.18;4.65;;;;;;;-8.48;54.12;93566.59;5057111;28;20032;-71
2021/01/17 06:24:04;;;;;;;9.32;3.58;;;;;;;-8.38;54.37;93563.56;5066574;28;20039;-71
2021/01/17 06:26:34;;;;;;;12.85;3.95;;;;;;;-8.35;53.83;93560.56;5051049;28;20407;-70
2021/01/17 06:29:01;;;;;;;11.43;4.43;;;;;;;-8.28;53.63;93562.13;5057847;28;20108;-71
2021/01/17 06:31:29;;;;;;;7.03;3.20;;;;;;;-8.22;54.22;93564.88;5062048;28;20086;-71
2021/01/17 06:34:02;;;;;;;6.20;3.17;;;;;;;-8.19;54.07;93564.47;5069612;28;20032;-70
2021/01/17 06:36:29;;;;;;;10.57;3.22;;;;;;;-8.16;53.81;93554.53;5061979;28;20032;-70
2021/01/17 06:38:54;;;;;;;9.30;3.70;;;;;;;-8.08;53.94;93553.47;5054722;28;20037;-70
2021/01/17 06:41:33;;;;;;;14.75;4.60;;;;;;;-8.04;53.77;93557.25;5058284;28;20035;-71
2021/01/17 06:44:06;;;;;;;11.45;4.00;;;;;;;-7.91;53.88;93572.72;5054307;28;20480;-70
2021/01/17 06:46:41;;;;;;;9.65;3.80;;;;;;;-7.79;53.38;93569.50;5069321;28;20036;-70
2021/01/17 06:49:16;;;;;;;21.10;5.03;;;;;;;-7.76;53.46;93569.06;5064838;28;20056;-70
2021/01/17 06:51:41;;;;;;;9.77;4.53;;;;;;;-7.69;52.72;93577.59;5065397;28;20480;-70
2021/01/17 06:54:07;;;;;;;11.65;5.03;;;;;;;-7.51;52.88;93580.28;5054532;28;20029;-71
2021/01/17 06:56:34;;;;;;;14.23;5.28;;;;;;;-7.44;52.95;93582.03;5055793;28;20071;-70
2021/01/17 06:59:00;;;;;;;15.15;4.32;;;;;;;-7.33;52.52;93583.94;5067241;28;20116;-70
2021/01/17 07:01:28;;;;;;;12.68;5.28;;;;;;;-7.28;51.69;93589.28;5058615;28;20115;-71
2021/01/17 07:03:56;;;;;;;16.42;6.47;;;;;;;-7.20;52.69;93581.25;5057105;28;20033;-70
2021/01/17 07:06:59;;;;;;;17.67;6.43;;;;;;;-7.10;52.66;93578.22;5063990;28;20024;-71
2021/01/17 07:09:49;;;;;;;11.85;5.60;;;;;;;-7.11;52.42;93598.13;5053870;28;20095;-71
2021/01/17 07:12:56;;;;;;;15.70;5.78;;;;;;;-7.07;51.88;93596.69;5052010;28;20132;-71
2021/01/17 07:15:33;;;;;;;6.60;3.38;;;;;;;-7.20;51.66;93583.84;5060268;28;20170;-70
2021/01/17 07:18:09;;;;;;;15.85;4.45;;;;;;;-7.24;52.50;93577.50;5063221;28;20032;-71
2021/01/17 07:20:38;;;;;;;13.45;5.32;;;;;;;-7.17;52.44;93585.22;5053304;28;20108;-70
2021/01/17 07:23:06;;;;;;;20.70;4.70;;;;;;;-7.08;52.42;93582.16;5052279;28;20036;-71
2021/01/17 07:25:34;;;;;;;22.15;7.90;;;;;;;-6.95;52.78;93591.63;5056488;28;20032;-71
2021/01/17 07:28:02;;;;;;;26.83;7.55;;;;;;;-6.89;53.15;93584.81;5061603;28;20040;-70
2021/01/17 07:30:49;;;;;;;20.63;7.05;;;;;;;-6.83;52.85;93591.75;5058448;28;20481;-72
2021/01/17 07:33:24;;;;;;;40.53;10.82;;;;;;;-6.82;52.24;93589.94;5057951;28;20504;-74
2021/01/17 07:35:51;;;;;;;23.75;9.80;;;;;;;-6.80;52.67;93578.34;5066548;28;20492;-73
2021/01/17 07:38:17;;;;;;;14.15;4.90;;;;;;;-6.94;52.28;93582.06;5048278;28;20492;-73
2021/01/17 07:40:55;;;;;;;10.15;4.22;;;;;;;-7.07;52.03;93581.16;5063225;28;20029;-73
2021/01/17 07:43:24;;;;;;;9.30;3.83;;;;;;;-7.15;51.94;93575.44;5048087;28;20027;-72
2021/01/17 07:45:52;;;;;;;14.85;4.82;;;;;;;-7.29;52.49;93572.94;5061765;28;20054;-73
2021/01/17 07:48:18;;;;;;;11.35;3.78;;;;;;;-7.26;52.24;93584.69;5055661;28;20036;-72
2021/01/17 07:50:47;;;;;;;12.30;3.80;;;;;;;-7.20;52.53;93581.25;5064693;28;20016;-71
2021/01/17 07:53:36;;;;;;;13.32;5.03;;;;;;;-7.12;52.55;93591.38;5059722;28;20032;-70
2021/01/17 07:56:14;;;;;;;11.48;4.85;;;;;;;-7.12;52.07;93593.97;5068112;28;20094;-71
2021/01/17 07:58:50;;;;;;;12.25;4.10;;;;;;;-6.99;51.99;93594.88;5058298;28;20028;-70
2021/01/17 08:01:30;;;;;;;10.27;4.03;;;;;;;-6.98;51.79;93599.03;5053451;28;20021;-71
2021/01/17 08:04:16;;;;;;;8.52;3.20;;;;;;;-6.87;50.79;93604.31;5067748;28;20028;-71
2021/01/17 08:06:42;;;;;;;7.78;3.15;;;;;;;-6.74;49.73;93600.03;5043525;28;20036;-73
2021/01/17 08:09:19;;;;;;;12.18;3.60;;;;;;;-6.72;49.38;93603.22;5056438;28;20025;-73
2021/01/17 08:11:46;;;;;;;7.03;3.28;;;;;;;-6.73;49.23;93607.59;5060243;28;20400;-71
2021/01/17 08:14:26;;;;;;;18.42;4.63;;;;;;;-6.57;49.16;93608.06;5063900;28;20040;-82
2021/01/17 08:17:11;;;;;;;7.55;3.80;;;;;;;-6.53;48.36;93609.25;5053732;28;20036;-74
2021/01/17 08:19:40;;;;;;;8.65;3.88;;;;;;;-6.58;48.37;93611.66;5050867;28;20116;-73
2021/01/17 08:22:18;;;;;;;8.98;3.58;;;;;;;-6.71;48.62;93597.81;5078672;28;20512;-75
2021/01/17 08:24:44;;;;;;;12.90;4.35;;;;;;;-6.62;48.35;93600.13;5048985;28;20428;-76
2021/01/17 08:27:10;;;;;;;8.85;3.90;;;;;;;-6.56;48.78;93607.84;5050359;28;20029;-75
2021/01/17 08:32:28;;;;;;;8.82;3.40;;;;;;;-6.39;47.64;93599.50;5071698;28;20090;-73
2021/01/17 08:34:53;;;;;;;11.13;3.60;;;;;;;-6.42;47.23;93598.16;5072632;28;20431;-74
2021/01/17 08:37:19;;;;;;;11.15;3.67;;;;;;;-6.42;46.96;93605.94;5067139;28;20547;-73
2021/01/17 08:39:46;;;;;;;8.25;3.50;;;;;;;-6.22;47.92;93615.31;5051303;28;20122;-73
2021/01/17 08:42:47;;;;;;;6.75;3.33;;;;;;;-6.17;46.38;93611.06;5067968;28;20025;-73
2021/01/17 08:45:18;;;;;;;6.75;3.33;;;;;;;-6.02;46.46;93615.91;5060980;28;20017;-73
2021/01/17 08:47:44;;;;;;;8.30;3.03;;;;;;;-5.90;47.50;93611.53;5052708;28;20021;-73
2021/01/17 08:50:27;;;;;;;8.50;3.60;;;;;;;-5.85;45.08;93613.47;5070241;28;20480;-73
2021/01/17 08:53:05;;;;;;;6.72;3.38;;;;;;;-5.89;45.83;93622.72;5060506;28;20029;-74
2021/01/17 08:55:39;;;;;;;9.75;3.45;;;;;;;-6.01;45.06;93622.66;5059610;28;20104;-74
2021/01/17 08:58:05;;;;;;;9.23;3.78;;;;;;;-5.98;45.99;93627.44;5050864;28;20090;-74
2021/01/17 09:00:49;;;;;;;7.93;2.92;;;;;;;-5.94;45.63;93623.38;5057957;28;20527;-74
2021/01/17 09:03:33;;;;;;;11.73;3.08;;;;;;;-6.02;46.09;93620.28;5060372;28;20439;-74
2021/01/17 09:06:04;;;;;;;10.27;4.18;;;;;;;-5.97;46.00;93625.63;5068286;28;20035;-74
2021/01/17 09:08:32;;;;;;;11.20;3.65;;;;;;;-6.08;46.50;93624.56;5058777;28;20025;-74
2021/01/17 09:10:57;;;;;;;8.38;3.72;;;;;;;-5.93;47.52;93622.34;5058015;28;20119;-74
2021/01/17 09:13:30;;;;;;;10.75;4.60;;;;;;;-6.02;46.88;93636.66;5064344;28;20125;-74
2021/01/17 09:16:01;;;;;;;8.73;2.97;;;;;;;-6.08;47.49;93638.31;5063820;28;20040;-74
2021/01/17 09:18:29;;;;;;;9.65;4.28;;;;;;;-5.99;47.60;93619.88;5067778;28;20057;-76
2021/01/17 09:20:56;;;;;;;11.15;4.05;;;;;;;-5.86;47.48;93625.69;5066630;28;20123;-72
2021/01/17 09:23:23;;;;;;;10.23;4.28;;;;;;;-5.84;47.52;93625.47;5060364;28;20049;-72
2021/01/17 09:25:55;;;;;;;8.50;3.72;;;;;;;-5.90;47.80;93618.56;5054559;28;20060;-72
2021/01/17 09:28:21;;;;;;;10.45;4.43;;;;;;;-6.03;48.06;93619.50;5059730;28;20032;-72
2021/01/17 09:30:48;;;;;;;10.13;3.92;;;;;;;-5.94;47.64;93618.19;5057904;28;20027;-73
2021/01/17 09:33:15;;;;;;;14.52;4.68;;;;;;;-5.89;48.87;93614.94;5062464;28;20028;-73
2021/01/17 09:35:40;;;;;;;11.02;4.30;;;;;;;-6.01;48.07;93601.13;5067278;28;20109;-72
2021/01/17 09:38:11;;;;;;;10.95;4.95;;;;;;;-6.06;48.58;93599.97;5067447;28;20198;-72
2021/01/17 09:40:44;;;;;;;12.77;4.07;;;;;;;-5.90;48.33;93602.97;5055016;28;20112;-72
2021/01/17 09:43:10;;;;;;;16.70;4.75;;;;;;;-5.90;47.53;93597.78;5063278;28;20093;-72
2021/01/17 09:45:36;;;;;;;11.00;4.88;;;;;;;-5.86;47.77;93591.94;5069619;28;20025;-72
2021/01/17 09:48:02;;;;;;;14.32;5.25;;;;;;;-5.79;47.79;93594.44;5066185;28;20071;-71
2021/01/17 09:50:32;;;;;;;9.20;4.70;;;;;;;-5.75;48.08;93592.22;5051081;28;20032;-71
2021/01/17 09:53:07;;;;;;;14.20;5.25;;;;;;;-5.74;47.82;93586.00;5054137;28;20047;-72
2021/01/17 09:55:43;;;;;;;13.20;5.45;;;;;;;-5.76;47.46;93580.22;5056684;28;20495;-72
2021/01/17 09:58:10;;;;;;;13.82;5.05;;;;;;;-5.81;48.09;93575.69;5063421;28;20024;-72
2021/01/17 10:00:37;;;;;;;14.20;5.68;;;;;;;-5.80;47.53;93577.28;5064348;28;20024;-72
2021/01/17 10:03:17;;;;;;;15.25;5.97;;;;;;;-5.76;47.43;93572.44;5052957;28;20033;-72
2021/01/17 10:05:44;;;;;;;10.60;4.93;;;;;;;-5.68;47.47;93565.16;5060552;28;20050;-72
2021/01/17 10:08:12;;;;;;;20.17;6.88;;;;;;;-5.63;47.13;93559.28;5054584;28;20547;-72
2021/01/17 10:10:40;;;;;;;10.88;5.45;;;;;;;-5.60;48.37;93556.25;5069217;28;20107;-72
2021/01/17 10:13:07;;;;;;;13.60;4.78;;;;;;;-5.59;45.36;93552.66;5064238;28;20059;-72
2021/01/17 10:15:32;;;;;;;9.68;4.38;;;;;;;-5.47;45.24;93550.88;5055847;28;20016;-72
2021/01/17 10:17:58;;;;;;;14.32;5.03;;;;;;;-5.46;45.35;93556.84;5052250;28;20097;-72
2021/01/17 10:20:31;;;;;;;12.57;5.65;;;;;;;-5.52;45.27;93552.56;5063841;28;20123;-72
2021/01/17 10:23:05;;;;;;;9.85;4.97;;;;;;;-5.51;44.31;93551.56;5070273;28;20407;-72
2021/01/17 10:25:33;;;;;;;11.07;4.57;;;;;;;-5.48;45.12;93558.88;5059412;28;20036;-72
2021/01/17 10:28:07;;;;;;;11.00;4.35;;;;;;;-5.30;44.66;93545.06;5060549;28;20032;-72
2021/01/17 10:30:35;;;;;;;12.45;4.70;;;;;;;-5.20;43.99;93550.50;5063021;28;20031;-72
2021/01/17 10:33:06;;;;;;;10.07;4.72;;;;;;;-5.13;45.14;93546.00;5061536;28;20099;-72
2021/01/17 10:35:36;;;;;;;14.20;5.82;;;;;;;-5.02;44.50;93538.44;5063563;28;20039;-72
2021/01/17 10:38:07;;;;;;;13.20;5.03;;;;;;;-4.92;44.36;93536.88;5053294;28;20025;-72
2021/01/17 10:40:34;;;;;;;13.50;4.72;;;;;;;-4.84;43.85;93538.34;5049528;28;20029;-72
2021/01/17 10:43:01;;;;;;;9.35;4.53;;;;;;;-4.80;42.94;93542.06;5066547;28;20183;-72
2021/01/17 10:45:28;;;;;;;10.48;4.53;;;;;;;-4.91;42.84;93540.25;5065364;28;20028;-73
2021/01/17 10:48:03;;;;;;;10.90;4.80;;;;;;;-4.98;43.05;93545.56;5061260;28;20157;-73
2021/01/17 10:50:31;;;;;;;8.88;3.85;;;;;;;-4.90;43.14;93542.63;5055616;28;20463;-72
2021/01/17 10:53:23;;;;;;;9.13;5.13;;;;;;;-4.87;43.48;93549.97;5053556;28;20033;-72
2021/01/17 10:55:58;;;;;;;10.57;4.45;;;;;;;-4.88;43.48;93542.41;5063828;28;20487;-71
2021/01/17 10:58:26;;;;;;;11.40;4.80;;;;;;;-4.78;43.91;93545.25;5064801;28;20094;-72
2021/01/17 11:00:57;;;;;;;10.57;4.47;;;;;;;-5.02;43.36;93541.03;5054022;28;20135;-72
2021/01/17 11:03:34;;;;;;;9.17;4.27;;;;;;;-4.98;42.75;93529.97;5063597;28;20020;-71
2021/01/17 11:06:29;;;;;;;9.88;4.80;;;;;;;-4.85;44.12;93531.53;5053882;28;20412;-72
2021/01/17 11:08:59;;;;;;;10.98;4.57;;;;;;;-4.66;42.77;93533.03;5055511;28;20040;-71
2021/01/17 11:11:32;;;;;;;10.02;4.63;;;;;;;-4.82;42.73;93538.91;5059831;28;20029;-71
2021/01/17 11:14:03;;;;;;;16.10;4.68;;;;;;;-4.92;43.63;93525.69;5056717;28;20523;-71
2021/01/17 11:16:51;;;;;;;9.70;4.70;;;;;;;-4.86;43.52;93540.38;5057112;28;20085;-72
2021/01/17 11:19:16;;;;;;;9.05;4.53;;;;;;;-4.92;43.19;93525.69;5051667;28;20052;-71
2021/01/17 11:21:43;;;;;;;13.85;5.45;;;;;;;-4.85;43.00;93527.13;5057874;28;20040;-71
2021/01/17 11:24:10;;;;;;;11.50;5.05;;;;;;;-4.76;43.38;93525.00;5062291;28;20017;-72
2021/01/17 11:26:36;;;;;;;11.00;5.22;;;;;;;-4.77;42.29;93528.59;5067878;28;20020;-72
2021/01/17 11:29:14;;;;;;;11.50;5.07;;;;;;;-4.72;42.92;93531.34;5054721;28;20431;-71
2021/01/17 11:31:47;;;;;;;10.63;4.68;;;;;;;-4.57;42.61;93535.28;5056327;28;20106;-72
2021/01/17 11:34:16;;;;;;;9.80;4.18;;;;;;;-4.67;42.47;93522.84;5055986;28;20021;-72
2021/01/17 11:36:42;;;;;;;11.75;5.20;;;;;;;-4.74;43.25;93522.97;5067858;28;20399;-74
2021/01/17 11:39:08;;;;;;;12.88;5.20;;;;;;;-4.75;43.94;93526.56;5068245;28;20476;-74
2021/01/17 11:41:39;;;;;;;14.18;5.60;;;;;;;-4.84;45.14;93514.94;5069041;28;20203;-73
2021/01/17 11:44:15;;;;;;;16.37;6.00;;;;;;;-4.91;45.82;93506.44;5056685;28;20520;-73